createdAt,value
2018-12-08T00:00:28.896Z,99.16
2018-12-08T00:01:28.831Z,99.07
2018-12-08T00:02:28.768Z,98.97
2018-12-08T00:03:28.697Z,98.88
2018-12-08T00:04:28.629Z,98.69
2018-12-08T00:05:28.564Z,98.31
2018-12-08T00:06:28.499Z,98.69
2018-12-08T00:07:28.433Z,98.79
2018-12-08T00:08:28.369Z,98.79
2018-12-08T00:09:28.304Z,97.74
2018-12-08T00:10:28.238Z,97.74
2018-12-08T00:11:28.182Z,98.69
2018-12-08T00:12:28.101Z,98.03
2018-12-08T00:13:28.042Z,98.22
2018-12-08T00:14:27.975Z,98.79
2018-12-08T00:15:27.910Z,98.31
2018-12-08T00:16:27.845Z,99.26
2018-12-08T00:17:27.780Z,99.84
2018-12-08T00:18:27.715Z,99.99
2018-12-08T00:19:27.650Z,99.99
2018-12-08T00:20:27.585Z,99.99
2018-12-08T00:21:27.527Z,99.99
2018-12-08T00:22:27.451Z,99.99
2018-12-08T00:23:27.390Z,99.99
2018-12-08T00:24:27.323Z,99.99
2018-12-08T00:25:27.259Z,99.99
2018-12-08T00:26:27.195Z,99.99
2018-12-08T00:27:27.124Z,99.99
2018-12-08T00:28:27.078Z,99.99
2018-12-08T00:29:26.995Z,99.99
2018-12-08T00:30:26.929Z,99.99
2018-12-08T00:31:26.863Z,99.99
2018-12-08T00:32:26.798Z,99.99
2018-12-08T00:33:26.733Z,99.99
2018-12-08T00:34:26.670Z,99.99
2018-12-08T00:35:26.605Z,99.99
2018-12-08T00:36:26.533Z,99.99
2018-12-08T00:37:26.469Z,99.99
2018-12-08T00:38:26.403Z,99.99
2018-12-08T00:39:26.338Z,99.59
2018-12-08T00:40:26.272Z,99.99
2018-12-08T00:41:26.208Z,99.99
2018-12-08T00:42:26.142Z,99.99
2018-12-08T00:43:26.075Z,99.99
2018-12-08T00:44:26.009Z,99.97
2018-12-08T00:45:25.945Z,99.78
2018-12-08T00:46:25.880Z,98.36
2018-12-08T00:47:25.816Z,98.45
2018-12-08T00:48:25.748Z,99.11
2018-12-08T00:49:25.682Z,98.93
2018-12-08T00:50:25.626Z,98.74
2018-12-08T00:51:25.555Z,98.64
2018-12-08T00:52:25.484Z,98.07
2018-12-08T00:53:25.418Z,97.31
2018-12-08T00:54:25.355Z,97.50
2018-12-08T00:55:25.290Z,97.41
2018-12-08T00:56:25.223Z,97.78
2018-12-08T00:57:25.158Z,97.03
2018-12-08T00:58:25.091Z,97.78
2018-12-08T00:59:25.026Z,97.41
2018-12-08T01:00:24.962Z,97.97
2018-12-08T01:01:24.896Z,96.65
2018-12-08T01:02:24.838Z,98.07
2018-12-08T01:03:24.763Z,97.78
2018-12-08T01:04:24.699Z,97.41
2018-12-08T01:05:24.632Z,96.84
2018-12-08T01:06:24.568Z,97.78
2018-12-08T01:07:24.501Z,98.26
2018-12-08T01:08:24.436Z,98.93
2018-12-08T01:09:24.388Z,99.97
2018-12-08T01:10:24.304Z,99.97
2018-12-08T01:11:24.239Z,99.99
2018-12-08T01:12:24.176Z,99.99
2018-12-08T01:13:24.107Z,99.99
2018-12-08T01:14:24.045Z,99.99
2018-12-08T01:15:23.984Z,99.99
2018-12-08T01:16:23.910Z,99.99
2018-12-08T01:17:23.843Z,99.99
2018-12-08T01:18:23.781Z,99.99
2018-12-08T01:19:23.712Z,99.99
2018-12-08T01:20:23.648Z,99.99
2018-12-08T01:21:23.584Z,99.99
2018-12-08T01:22:23.516Z,99.99
2018-12-08T01:23:23.454Z,99.99
2018-12-08T01:24:23.380Z,99.99
2018-12-08T01:25:23.320Z,99.99
2018-12-08T01:26:23.255Z,99.99
2018-12-08T01:27:23.188Z,99.99
2018-12-08T01:28:23.122Z,99.99
2018-12-08T01:29:23.061Z,99.88
2018-12-08T01:30:22.997Z,99.50
2018-12-08T01:31:22.920Z,99.99
2018-12-08T01:32:22.858Z,99.50
2018-12-08T01:33:22.792Z,99.30
2018-12-08T01:34:22.734Z,99.21
2018-12-08T01:35:22.665Z,99.02
2018-12-08T01:36:22.602Z,97.69
2018-12-08T01:37:22.534Z,97.88
2018-12-08T01:38:22.468Z,97.69
2018-12-08T01:39:22.402Z,97.22
2018-12-08T01:40:22.336Z,95.51
2018-12-08T01:41:22.269Z,95.51
2018-12-08T01:42:22.205Z,96.36
2018-12-08T01:43:22.138Z,96.17
2018-12-08T01:44:22.073Z,96.17
2018-12-08T01:45:22.035Z,96.26
2018-12-08T01:46:21.941Z,95.98
2018-12-08T01:47:21.897Z,96.36
2018-12-08T01:48:21.809Z,96.65
2018-12-08T01:49:21.744Z,97.41
2018-12-08T01:50:21.677Z,97.22
2018-12-08T01:51:21.611Z,97.03
2018-12-08T01:52:21.552Z,97.12
2018-12-08T01:53:21.487Z,97.41
2018-12-08T01:54:21.431Z,97.41
2018-12-08T01:55:21.348Z,97.03
2018-12-08T01:56:21.309Z,96.36
2018-12-08T01:57:21.218Z,96.08
2018-12-08T01:58:21.151Z,95.70
2018-12-08T01:59:21.086Z,95.22
2018-12-08T02:00:21.025Z,95.79
2018-12-08T02:01:20.957Z,95.98
2018-12-08T02:02:20.888Z,96.17
2018-12-08T02:03:20.822Z,97.12
2018-12-08T02:04:20.757Z,96.08
2018-12-08T02:05:20.696Z,95.03
2018-12-08T02:06:20.632Z,95.22
2018-12-08T02:07:20.578Z,95.12
2018-12-08T02:08:20.493Z,94.84
2018-12-08T02:09:20.423Z,94.65
2018-12-08T02:10:20.361Z,95.51
2018-12-08T02:11:24.875Z,95.60
2018-12-08T02:12:20.230Z,95.60
2018-12-08T02:13:20.165Z,94.56
2018-12-08T02:14:20.099Z,94.93
2018-12-08T02:15:20.034Z,94.93
2018-12-08T02:16:19.966Z,94.98
2018-12-08T02:17:19.902Z,95.70
2018-12-08T02:18:19.837Z,95.36
2018-12-08T02:19:19.769Z,95.89
2018-12-08T02:20:19.704Z,94.93
2018-12-08T02:21:19.639Z,95.70
2018-12-08T02:22:19.573Z,95.41
2018-12-08T02:23:19.508Z,95.89
2018-12-08T02:24:19.490Z,94.74
2018-12-08T02:25:19.377Z,95.12
2018-12-08T02:26:19.307Z,94.18
2018-12-08T02:27:19.243Z,94.08
2018-12-08T02:28:19.177Z,94.84
2018-12-08T02:29:19.171Z,94.93
2018-12-08T02:30:19.052Z,95.70
2018-12-08T02:31:18.985Z,95.03
2018-12-08T02:32:18.916Z,94.93
2018-12-08T02:33:18.846Z,95.60
2018-12-08T02:34:18.784Z,95.70
2018-12-08T02:35:18.726Z,95.60
2018-12-08T02:36:18.651Z,95.41
2018-12-08T02:37:18.588Z,95.60
2018-12-08T02:38:18.537Z,95.89
2018-12-08T02:39:18.455Z,95.60
2018-12-08T02:40:18.397Z,94.93
2018-12-08T02:41:18.323Z,95.60
2018-12-08T02:42:18.260Z,95.51
2018-12-08T02:43:18.192Z,95.79
2018-12-08T02:44:18.131Z,95.70
2018-12-08T02:45:18.182Z,95.03
2018-12-08T02:46:17.995Z,95.03
2018-12-08T02:47:17.924Z,95.51
2018-12-08T02:48:17.867Z,95.03
2018-12-08T02:49:17.804Z,95.03
2018-12-08T02:50:17.745Z,96.03
2018-12-08T02:51:17.664Z,96.08
2018-12-08T02:52:17.601Z,96.74
2018-12-08T02:53:17.543Z,97.78
2018-12-08T02:54:17.471Z,97.31
2018-12-08T02:55:17.403Z,97.55
2018-12-08T02:56:17.337Z,98.40
2018-12-08T02:57:17.272Z,99.07
2018-12-08T02:58:17.203Z,99.07
2018-12-08T02:59:17.142Z,99.99
2018-12-08T03:00:17.082Z,99.99
2018-12-08T03:01:17.015Z,99.99
2018-12-08T03:02:16.950Z,99.99
2018-12-08T03:03:16.877Z,99.99
2018-12-08T03:04:16.810Z,99.99
2018-12-08T03:05:16.751Z,99.99
2018-12-08T03:06:16.687Z,99.99
2018-12-08T03:07:16.617Z,99.99
2018-12-08T03:08:16.557Z,99.99
2018-12-08T03:09:16.483Z,99.99
2018-12-08T03:10:16.423Z,99.99
2018-12-08T03:11:16.352Z,99.99
2018-12-08T03:12:16.287Z,99.99
2018-12-08T03:13:16.226Z,99.99
2018-12-08T03:14:16.158Z,99.99
2018-12-08T03:15:16.084Z,99.99
2018-12-08T03:16:16.023Z,99.99
2018-12-08T03:17:15.962Z,99.99
2018-12-08T03:18:15.891Z,99.64
2018-12-08T03:19:15.823Z,99.44
2018-12-08T03:20:15.760Z,99.07
2018-12-08T03:21:15.696Z,99.44
2018-12-08T03:22:15.622Z,99.26
2018-12-08T03:23:15.577Z,99.44
2018-12-08T03:24:15.522Z,99.99
2018-12-08T03:25:15.429Z,99.07
2018-12-08T03:26:15.363Z,98.40
2018-12-08T03:27:15.312Z,98.50
2018-12-08T03:28:15.238Z,98.50
2018-12-08T03:29:15.174Z,98.02
2018-12-08T03:30:15.122Z,98.12
2018-12-08T03:31:15.047Z,98.21
2018-12-08T03:32:14.970Z,97.92
2018-12-08T03:33:14.903Z,98.31
2018-12-08T03:34:14.837Z,98.02
2018-12-08T03:35:14.770Z,98.02
2018-12-08T03:36:14.709Z,99.07
2018-12-08T03:37:14.649Z,99.92
2018-12-08T03:38:14.580Z,99.99
2018-12-08T03:39:14.509Z,99.99
2018-12-08T03:40:14.445Z,99.99
2018-12-08T03:41:14.375Z,99.99
2018-12-08T03:42:14.310Z,99.99
2018-12-08T03:43:14.247Z,99.99
2018-12-08T03:44:14.180Z,99.99
2018-12-08T03:45:14.120Z,99.99
2018-12-08T03:46:14.047Z,99.99
2018-12-08T03:47:14.001Z,99.99
2018-12-08T03:48:13.913Z,99.99
2018-12-08T03:49:13.858Z,99.99
2018-12-08T03:50:13.781Z,99.99
2018-12-08T03:51:13.716Z,99.99
2018-12-08T03:52:13.659Z,99.99
2018-12-08T03:53:13.582Z,99.99
2018-12-08T03:54:13.519Z,99.99
2018-12-08T03:55:13.464Z,99.99
2018-12-08T03:56:13.394Z,99.99
2018-12-08T03:57:13.321Z,99.99
2018-12-08T03:58:13.255Z,99.99
2018-12-08T03:59:13.223Z,99.99
2018-12-08T04:00:13.124Z,99.99
2018-12-08T04:01:13.058Z,99.99
2018-12-08T04:02:12.999Z,99.99
2018-12-08T04:03:12.922Z,99.99
2018-12-08T04:04:12.858Z,99.99
2018-12-08T04:05:12.799Z,99.99
2018-12-08T04:06:12.733Z,99.99
2018-12-08T04:07:12.664Z,99.99
2018-12-08T04:08:12.595Z,99.99
2018-12-08T04:09:12.541Z,99.99
2018-12-08T04:10:12.462Z,99.99
2018-12-08T04:11:12.399Z,99.99
2018-12-08T04:12:12.330Z,99.99
2018-12-08T04:13:12.266Z,99.99
2018-12-08T04:14:12.200Z,99.99
2018-12-08T04:15:12.148Z,99.99
2018-12-08T04:16:12.076Z,99.99
2018-12-08T04:17:11.994Z,99.99
2018-12-08T04:18:11.936Z,99.99
2018-12-08T04:19:11.867Z,99.99
2018-12-08T04:20:11.803Z,99.99
2018-12-08T04:21:11.739Z,99.99
2018-12-08T04:22:11.829Z,99.99
2018-12-08T04:23:11.608Z,99.99
2018-12-08T04:24:11.536Z,99.99
2018-12-08T04:25:11.471Z,99.99
2018-12-08T04:26:11.405Z,99.99
2018-12-08T04:27:11.338Z,99.99
2018-12-08T04:28:11.277Z,99.99
2018-12-08T04:29:11.210Z,99.99
2018-12-08T04:30:11.153Z,99.99
2018-12-08T04:31:11.073Z,99.99
2018-12-08T04:32:11.008Z,99.99
2018-12-08T04:33:10.940Z,99.99
2018-12-08T04:34:10.873Z,99.99
2018-12-08T04:35:10.814Z,99.99
2018-12-08T04:36:10.746Z,99.99
2018-12-08T04:37:10.677Z,99.99
2018-12-08T04:38:10.605Z,99.99
2018-12-08T04:39:10.543Z,99.99
2018-12-08T04:40:10.477Z,99.99
2018-12-08T04:41:10.411Z,99.99
2018-12-08T04:42:10.350Z,99.99
2018-12-08T04:43:10.281Z,99.99
2018-12-08T04:44:10.222Z,99.99
2018-12-08T04:45:10.143Z,99.99
2018-12-08T04:46:10.078Z,99.99
2018-12-08T04:47:10.013Z,99.99
2018-12-08T04:48:09.948Z,99.99
2018-12-08T04:49:09.883Z,99.99
2018-12-08T04:50:09.819Z,99.99
2018-12-08T04:51:09.757Z,99.99
2018-12-08T04:52:09.700Z,99.99
2018-12-08T04:53:09.617Z,99.99
2018-12-08T04:54:09.549Z,99.99
2018-12-08T04:55:09.487Z,99.99
2018-12-08T04:56:09.423Z,99.99
2018-12-08T04:57:09.357Z,99.99
2018-12-08T04:58:09.297Z,99.99
2018-12-08T04:59:09.214Z,99.99
2018-12-08T05:00:09.151Z,99.99
2018-12-08T05:01:09.085Z,99.99
2018-12-08T05:02:09.020Z,99.99
2018-12-08T05:03:08.959Z,99.99
2018-12-08T05:04:08.896Z,99.99
2018-12-08T05:05:08.831Z,99.99
2018-12-08T05:06:08.749Z,99.99
2018-12-08T05:07:08.688Z,99.99
2018-12-08T05:08:08.618Z,99.99
2018-12-08T05:09:08.553Z,99.99
2018-12-08T05:10:08.491Z,99.99
2018-12-08T05:11:08.437Z,99.99
2018-12-08T05:12:08.359Z,99.99
2018-12-08T05:13:08.286Z,99.99
2018-12-08T05:14:08.224Z,99.99
2018-12-08T05:15:08.155Z,99.99
2018-12-08T05:16:08.092Z,99.99
2018-12-08T05:17:08.028Z,99.99
2018-12-08T05:18:07.963Z,99.99
2018-12-08T05:19:07.895Z,99.99
2018-12-08T05:20:07.821Z,99.99
2018-12-08T05:21:07.758Z,99.99
2018-12-08T05:22:07.693Z,99.99
2018-12-08T05:23:07.624Z,99.99
2018-12-08T05:24:07.564Z,99.99
2018-12-08T05:25:07.498Z,99.99
2018-12-08T05:26:07.429Z,99.99
2018-12-08T05:27:07.357Z,99.99
2018-12-08T05:28:07.292Z,99.99
2018-12-08T05:29:07.228Z,99.99
2018-12-08T05:30:07.161Z,99.99
2018-12-08T05:31:07.103Z,99.99
2018-12-08T05:32:07.041Z,99.99
2018-12-08T05:33:06.974Z,99.99
2018-12-08T05:34:06.893Z,99.99
2018-12-08T05:35:06.828Z,99.99
2018-12-08T05:36:06.761Z,99.99
2018-12-08T05:37:06.693Z,99.99
2018-12-08T05:38:06.637Z,99.99
2018-12-08T05:39:06.573Z,99.99
2018-12-08T05:40:06.521Z,99.99
2018-12-08T05:41:06.427Z,99.99
2018-12-08T05:42:06.362Z,99.99
2018-12-08T05:43:06.294Z,99.99
2018-12-08T05:44:06.236Z,99.99
2018-12-08T05:45:06.159Z,99.99
2018-12-08T05:46:06.097Z,99.99
2018-12-08T05:47:06.038Z,99.99
2018-12-08T05:48:05.962Z,99.99
2018-12-08T05:49:05.897Z,99.99
2018-12-08T05:50:05.830Z,99.99
2018-12-08T05:51:05.778Z,99.99
2018-12-08T05:52:05.694Z,99.99
2018-12-08T05:53:05.636Z,99.73
2018-12-08T05:54:05.573Z,99.44
2018-12-08T05:55:05.497Z,99.91
2018-12-08T05:56:05.433Z,99.99
2018-12-08T05:57:05.368Z,99.73
2018-12-08T05:58:05.299Z,99.82
2018-12-08T05:59:05.228Z,99.82
2018-12-08T06:00:05.170Z,99.35
2018-12-08T06:01:05.099Z,98.68
2018-12-08T06:02:05.036Z,98.49
2018-12-08T06:03:04.970Z,98.21
2018-12-08T06:04:04.902Z,97.36
2018-12-08T06:05:04.841Z,97.83
2018-12-08T06:06:04.762Z,98.49
2018-12-08T06:07:04.700Z,98.40
2018-12-08T06:08:04.681Z,98.11
2018-12-08T06:09:04.571Z,98.11
2018-12-08T06:10:04.500Z,97.64
2018-12-08T06:11:04.434Z,98.21
2018-12-08T06:12:04.378Z,97.92
2018-12-08T06:13:04.296Z,97.74
2018-12-08T06:14:04.235Z,97.92
2018-12-08T06:15:04.167Z,98.02
2018-12-08T06:16:04.101Z,98.21
2018-12-08T06:17:04.038Z,98.02
2018-12-08T06:18:03.969Z,98.30
2018-12-08T06:19:03.915Z,98.11
2018-12-08T06:20:03.833Z,98.02
2018-12-08T06:21:03.767Z,98.21
2018-12-08T06:22:03.701Z,98.30
2018-12-08T06:23:03.637Z,97.17
2018-12-08T06:24:03.571Z,97.36
2018-12-08T06:25:03.505Z,97.17
2018-12-08T06:26:03.449Z,98.02
2018-12-08T06:27:03.365Z,97.92
2018-12-08T06:28:03.302Z,97.55
2018-12-08T06:29:03.235Z,97.55
2018-12-08T06:30:03.171Z,97.92
2018-12-08T06:31:03.103Z,98.40
2018-12-08T06:32:03.040Z,98.11
2018-12-08T06:33:02.986Z,97.74
2018-12-08T06:34:02.899Z,98.02
2018-12-08T06:35:02.838Z,98.40
2018-12-08T06:36:02.768Z,98.02
2018-12-08T06:37:02.708Z,98.11
2018-12-08T06:38:02.647Z,98.02
2018-12-08T06:39:02.569Z,97.92
2018-12-08T06:40:02.623Z,98.02
2018-12-08T06:41:02.434Z,98.87
2018-12-08T06:42:02.371Z,98.59
2018-12-08T06:43:02.304Z,99.06
2018-12-08T06:44:02.243Z,98.87
2018-12-08T06:45:02.167Z,98.87
2018-12-08T06:46:02.102Z,99.35
2018-12-08T06:47:02.036Z,99.35
2018-12-08T06:48:01.976Z,98.59
2018-12-08T06:49:01.900Z,98.97
2018-12-08T06:50:01.837Z,99.16
2018-12-08T06:51:01.780Z,98.30
2018-12-08T06:52:01.697Z,98.40
2018-12-08T06:53:01.640Z,98.59
2018-12-08T06:54:01.594Z,98.87
2018-12-08T06:55:01.509Z,98.49
2018-12-08T06:56:01.431Z,98.21
2018-12-08T06:57:01.374Z,98.11
2018-12-08T06:58:01.310Z,97.50
2018-12-08T06:59:01.231Z,97.69
2018-12-08T07:00:01.169Z,97.92
2018-12-08T07:01:01.103Z,98.07
2018-12-08T07:02:01.037Z,96.97
2018-12-08T07:03:00.971Z,97.69
2018-12-08T07:04:00.904Z,97.45
2018-12-08T07:05:00.838Z,98.07
2018-12-08T07:06:00.767Z,97.92
2018-12-08T07:07:00.704Z,98.54
2018-12-08T07:08:00.636Z,98.45
2018-12-08T07:09:00.573Z,98.16
2018-12-08T07:10:00.504Z,97.22
2018-12-08T07:11:00.442Z,97.69
2018-12-08T07:12:00.376Z,97.41
2018-12-08T07:13:00.302Z,97.60
2018-12-08T07:14:00.241Z,97.97
2018-12-08T07:15:00.172Z,98.07
2018-12-08T07:16:00.112Z,98.54
2018-12-08T07:17:00.046Z,98.30
2018-12-08T07:17:59.981Z,98.07
2018-12-08T07:18:59.929Z,97.88
2018-12-08T07:19:59.841Z,97.60
2018-12-08T07:20:59.773Z,97.97
2018-12-08T07:21:59.709Z,97.60
2018-12-08T07:22:59.643Z,97.12
2018-12-08T07:23:59.567Z,97.22
2018-12-08T07:24:59.517Z,97.12
2018-12-08T07:25:59.445Z,97.41
2018-12-08T07:26:59.372Z,96.55
2018-12-08T07:27:59.305Z,96.08
2018-12-08T07:28:59.239Z,95.60
2018-12-08T07:29:59.173Z,96.17
2018-12-08T07:30:59.106Z,95.60
2018-12-08T07:31:59.040Z,95.70
2018-12-08T07:32:58.981Z,95.70
2018-12-08T07:33:58.914Z,94.84
2018-12-08T07:34:58.840Z,94.65
2018-12-08T07:35:58.772Z,94.84
2018-12-08T07:36:58.708Z,94.08
2018-12-08T07:37:58.636Z,94.27
2018-12-08T07:38:58.575Z,94.65
2018-12-08T07:39:58.518Z,94.93
2018-12-08T07:40:58.441Z,93.99
2018-12-08T07:41:58.377Z,93.32
2018-12-08T07:42:58.309Z,93.70
2018-12-08T07:43:58.256Z,92.94
2018-12-08T07:44:58.175Z,93.60
2018-12-08T07:45:58.114Z,94.08
2018-12-08T07:46:58.052Z,92.75
2018-12-08T07:47:57.977Z,92.94
2018-12-08T07:48:57.909Z,92.80
2018-12-08T07:49:57.847Z,93.08
2018-12-08T07:50:57.805Z,92.13
2018-12-08T07:51:57.708Z,92.90
2018-12-08T07:52:57.648Z,92.42
2018-12-08T07:53:57.598Z,92.90
2018-12-08T07:54:57.516Z,92.90
2018-12-08T07:55:57.444Z,92.99
2018-12-08T07:56:57.384Z,92.13
2018-12-08T07:57:57.316Z,91.66
2018-12-08T07:58:57.245Z,91.38
2018-12-08T07:59:57.184Z,91.75
2018-12-08T08:00:57.125Z,91.75
2018-12-08T08:01:57.057Z,91.19
2018-12-08T08:02:56.981Z,91.19
2018-12-08T08:03:56.917Z,90.61
2018-12-08T08:04:56.853Z,90.90
2018-12-08T08:05:56.795Z,91.19
2018-12-08T08:06:56.724Z,91.19
2018-12-08T08:07:56.662Z,91.38
2018-12-08T08:08:56.585Z,90.99
2018-12-08T08:09:56.518Z,91.56
2018-12-08T08:10:56.473Z,90.99
2018-12-08T08:11:56.392Z,90.42
2018-12-08T08:12:56.332Z,90.23
2018-12-08T08:13:56.281Z,90.80
2018-12-08T08:14:56.205Z,91.09
2018-12-08T08:15:56.130Z,90.71
2018-12-08T08:16:56.060Z,90.23
2018-12-08T08:17:55.992Z,89.95
2018-12-08T08:18:55.929Z,90.61
2018-12-08T08:19:55.866Z,90.90
2018-12-08T08:20:55.804Z,90.90
2018-12-08T08:21:55.730Z,90.47
2018-12-08T08:22:55.658Z,90.90
2018-12-08T08:23:55.597Z,90.33
2018-12-08T08:24:55.531Z,90.05
2018-12-08T08:25:55.466Z,90.33
2018-12-08T08:26:55.402Z,90.05
2018-12-08T08:27:55.335Z,89.76
2018-12-08T08:28:55.276Z,89.57
2018-12-08T08:29:55.201Z,89.67
2018-12-08T08:30:55.132Z,89.47
2018-12-08T08:31:55.065Z,89.76
2018-12-08T08:32:55.001Z,89.86
2018-12-08T08:33:54.940Z,89.86
2018-12-08T08:34:54.871Z,89.86
2018-12-08T08:35:54.810Z,89.28
2018-12-08T08:36:54.734Z,89.57
2018-12-08T08:37:54.673Z,89.09
2018-12-08T08:38:54.604Z,89.38
2018-12-08T08:39:54.537Z,89.57
2018-12-08T08:40:54.476Z,89.28
2018-12-08T08:41:54.408Z,88.43
2018-12-08T08:42:54.336Z,87.95
2018-12-08T08:43:56.201Z,88.15
2018-12-08T08:44:54.209Z,87.95
2018-12-08T08:45:54.146Z,88.43
2018-12-08T08:46:54.076Z,88.81
2018-12-08T08:47:54.010Z,88.90
2018-12-08T08:48:53.943Z,89.00
2018-12-08T08:49:53.876Z,88.90
2018-12-08T08:50:53.808Z,88.34
2018-12-08T08:51:53.745Z,88.34
2018-12-08T08:52:53.681Z,88.05
2018-12-08T08:53:53.614Z,88.15
2018-12-08T08:54:53.548Z,88.00
2018-12-08T08:55:53.481Z,87.95
2018-12-08T08:56:53.419Z,87.38
2018-12-08T08:57:53.349Z,87.95
2018-12-08T08:58:53.282Z,88.15
2018-12-08T08:59:53.227Z,87.95
2018-12-08T09:00:53.158Z,88.00
2018-12-08T09:01:53.088Z,87.76
2018-12-08T09:02:53.021Z,87.52
2018-12-08T09:03:52.959Z,87.34
2018-12-08T09:04:52.889Z,87.14
2018-12-08T09:05:52.830Z,86.67
2018-12-08T09:06:52.760Z,86.86
2018-12-08T09:07:52.689Z,86.67
2018-12-08T09:08:52.626Z,86.86
2018-12-08T09:09:52.561Z,86.67
2018-12-08T09:10:52.495Z,85.91
2018-12-08T09:11:52.432Z,85.81
2018-12-08T09:12:52.372Z,86.00
2018-12-08T09:13:52.300Z,86.47
2018-12-08T09:14:52.227Z,86.47
2018-12-08T09:15:52.171Z,86.47
2018-12-08T09:16:52.099Z,85.72
2018-12-08T09:17:52.036Z,86.00
2018-12-08T09:18:51.969Z,86.10
2018-12-08T09:19:51.906Z,86.10
2018-12-08T09:20:51.843Z,85.91
2018-12-08T09:21:51.766Z,86.00
2018-12-08T09:22:51.701Z,86.29
2018-12-08T09:23:51.636Z,85.81
2018-12-08T09:24:51.573Z,85.81
2018-12-08T09:25:51.507Z,85.81
2018-12-08T09:26:51.445Z,85.72
2018-12-08T09:27:51.379Z,85.62
2018-12-08T09:28:51.312Z,85.43
2018-12-08T09:29:51.243Z,84.67
2018-12-08T09:30:51.193Z,84.29
2018-12-08T09:31:51.110Z,84.86
2018-12-08T09:32:51.050Z,84.39
2018-12-08T09:33:52.928Z,84.48
2018-12-08T09:34:50.915Z,84.77
2018-12-08T09:35:50.858Z,83.72
2018-12-08T09:36:50.800Z,84.01
2018-12-08T09:37:50.721Z,84.10
2018-12-08T09:38:50.650Z,84.10
2018-12-08T09:39:50.588Z,83.62
2018-12-08T09:40:50.524Z,83.53
2018-12-08T09:41:50.455Z,83.44
2018-12-08T09:42:50.393Z,83.39
2018-12-08T09:43:50.326Z,84.29
2018-12-08T09:44:50.264Z,84.01
2018-12-08T09:45:50.190Z,84.05
2018-12-08T09:46:50.126Z,83.67
2018-12-08T09:47:50.064Z,83.62
2018-12-08T09:48:50.000Z,82.81
2018-12-08T09:49:49.930Z,82.34
2018-12-08T09:50:49.873Z,82.91
2018-12-08T09:51:49.810Z,82.77
2018-12-08T09:52:49.745Z,83.00
2018-12-08T09:53:49.666Z,83.48
2018-12-08T09:54:49.620Z,83.67
2018-12-08T09:55:49.536Z,83.29
2018-12-08T09:56:49.470Z,83.72
2018-12-08T09:57:49.410Z,83.82
2018-12-08T09:58:49.341Z,83.72
2018-12-08T09:59:49.281Z,84.29
2018-12-08T10:00:49.212Z,83.72
2018-12-08T10:01:49.147Z,84.01
2018-12-08T10:02:49.096Z,83.62
2018-12-08T10:03:49.012Z,84.48
2018-12-08T10:04:48.945Z,83.62
2018-12-08T10:05:48.881Z,83.29
2018-12-08T10:06:48.817Z,83.62
2018-12-08T10:07:48.750Z,83.48
2018-12-08T10:08:48.743Z,83.72
2018-12-08T10:09:48.641Z,83.62
2018-12-08T10:10:48.552Z,83.76
2018-12-08T10:11:48.507Z,83.67
2018-12-08T10:12:48.422Z,82.81
2018-12-08T10:13:48.357Z,82.81
2018-12-08T10:14:48.292Z,82.81
2018-12-08T10:15:48.229Z,83.58
2018-12-08T10:16:48.155Z,83.67
2018-12-08T10:17:48.112Z,84.05
2018-12-08T10:18:48.038Z,83.29
2018-12-08T10:19:47.961Z,83.48
2018-12-08T10:20:47.898Z,83.48
2018-12-08T10:21:47.853Z,83.39
2018-12-08T10:22:47.791Z,82.81
2018-12-08T10:23:47.719Z,82.34
2018-12-08T10:24:47.648Z,82.81
2018-12-08T10:25:47.577Z,82.34
2018-12-08T10:26:47.501Z,83.00
2018-12-08T10:27:47.443Z,82.34
2018-12-08T10:28:47.392Z,82.24
2018-12-08T10:29:47.310Z,82.24
2018-12-08T10:30:47.244Z,81.67
2018-12-08T10:31:47.179Z,81.77
2018-12-08T10:32:47.137Z,82.34
2018-12-08T10:33:47.044Z,82.00
2018-12-08T10:34:46.984Z,81.77
2018-12-08T10:35:46.924Z,81.86
2018-12-08T10:36:46.849Z,81.48
2018-12-08T10:37:46.788Z,81.58
2018-12-08T10:38:46.725Z,82.05
2018-12-08T10:39:46.658Z,82.34
2018-12-08T10:40:46.597Z,82.81
2018-12-08T10:41:46.521Z,82.43
2018-12-08T10:42:46.464Z,82.62
2018-12-08T10:43:46.391Z,82.91
2018-12-08T10:44:46.330Z,83.00
2018-12-08T10:45:46.268Z,82.71
2018-12-08T10:46:46.199Z,82.43
2018-12-08T10:47:46.139Z,82.53
2018-12-08T10:48:46.069Z,82.91
2018-12-08T10:49:46.009Z,83.39
2018-12-08T10:50:45.942Z,83.48
2018-12-08T10:51:45.875Z,82.91
2018-12-08T10:52:45.813Z,82.62
2018-12-08T10:53:45.739Z,83.10
2018-12-08T10:54:45.678Z,82.24
2018-12-08T10:55:45.618Z,83.00
2018-12-08T10:56:45.548Z,82.81
2018-12-08T10:57:45.495Z,82.34
2018-12-08T10:58:45.413Z,82.71
2018-12-08T10:59:45.349Z,82.53
2018-12-08T11:00:45.301Z,82.62
2018-12-08T11:01:45.225Z,82.81
2018-12-08T11:02:45.166Z,82.62
2018-12-08T11:03:45.089Z,81.67
2018-12-08T11:04:45.028Z,82.53
2018-12-08T11:05:44.977Z,82.53
2018-12-08T11:06:44.895Z,82.81
2018-12-08T11:07:44.837Z,82.15
2018-12-08T11:08:44.763Z,82.05
2018-12-08T11:09:44.718Z,82.53
2018-12-08T11:10:44.632Z,82.91
2018-12-08T11:11:44.571Z,83.58
2018-12-08T11:12:44.515Z,82.53
2018-12-08T11:13:44.440Z,83.10
2018-12-08T11:14:44.376Z,82.95
2018-12-08T11:15:44.310Z,82.67
2018-12-08T11:16:44.244Z,82.67
2018-12-08T11:17:44.192Z,82.57
2018-12-08T11:18:44.117Z,82.76
2018-12-08T11:19:44.059Z,82.57
2018-12-08T11:20:43.981Z,81.43
2018-12-08T11:21:43.923Z,82.09
2018-12-08T11:22:43.874Z,82.09
2018-12-08T11:23:43.790Z,81.52
2018-12-08T11:24:43.727Z,81.62
2018-12-08T11:25:43.658Z,81.58
2018-12-08T11:26:43.595Z,81.58
2018-12-08T11:27:43.539Z,81.58
2018-12-08T11:28:43.472Z,82.24
2018-12-08T11:29:43.402Z,81.52
2018-12-08T11:30:43.329Z,81.67
2018-12-08T11:31:43.273Z,81.67
2018-12-08T11:32:43.213Z,81.81
2018-12-08T11:33:43.147Z,81.96
2018-12-08T11:34:43.100Z,81.67
2018-12-08T11:35:43.010Z,81.58
2018-12-08T11:36:49.575Z,81.71
2018-12-08T11:37:42.909Z,82.09
2018-12-08T11:38:42.824Z,82.62
2018-12-08T11:39:42.751Z,81.77
2018-12-08T11:40:42.681Z,82.05
2018-12-08T11:41:42.616Z,82.34
2018-12-08T11:42:42.551Z,82.34
2018-12-08T11:43:42.489Z,81.77
2018-12-08T11:44:42.431Z,82.05
2018-12-08T11:45:42.368Z,81.48
2018-12-08T11:46:42.295Z,81.43
2018-12-08T11:47:42.229Z,81.48
2018-12-08T11:48:42.172Z,81.38
2018-12-08T11:49:43.072Z,82.71
2018-12-08T11:50:42.074Z,84.14
2018-12-08T11:51:41.976Z,84.72
2018-12-08T11:52:41.907Z,84.81
2018-12-08T11:53:41.842Z,86.14
2018-12-08T11:54:41.777Z,86.14
2018-12-08T11:55:41.704Z,86.71
2018-12-08T11:56:41.643Z,85.95
2018-12-08T11:57:41.574Z,85.86
2018-12-08T11:58:41.513Z,86.14
2018-12-08T11:59:41.559Z,85.76
2018-12-08T12:00:41.381Z,85.19
2018-12-08T12:01:41.322Z,85.66
2018-12-08T12:02:41.250Z,85.00
2018-12-08T12:03:41.188Z,84.43
2018-12-08T12:04:41.124Z,85.14
2018-12-08T12:05:41.060Z,84.95
2018-12-08T12:06:41.011Z,85.42
2018-12-08T12:07:40.925Z,84.56
2018-12-08T12:08:40.862Z,83.62
2018-12-08T12:09:40.795Z,82.76
2018-12-08T12:10:40.735Z,82.67
2018-12-08T12:11:40.672Z,82.67
2018-12-08T12:12:40.604Z,82.76
2018-12-08T12:13:40.536Z,82.95
2018-12-08T12:14:40.475Z,83.71
2018-12-08T12:15:40.412Z,82.86
2018-12-08T12:16:40.359Z,82.34
2018-12-08T12:17:40.274Z,82.57
2018-12-08T12:18:40.213Z,82.15
2018-12-08T12:19:40.144Z,83.00
2018-12-08T12:20:40.081Z,82.34
2018-12-08T12:21:40.022Z,82.57
2018-12-08T12:22:39.951Z,83.52
2018-12-08T12:23:39.888Z,82.86
2018-12-08T12:24:39.829Z,82.38
2018-12-08T12:25:39.763Z,82.28
2018-12-08T12:26:39.701Z,82.53
2018-12-08T12:27:39.661Z,82.57
2018-12-08T12:28:39.559Z,82.76
2018-12-08T12:29:39.514Z,83.48
2018-12-08T12:30:39.432Z,84.19
2018-12-08T12:31:39.370Z,84.33
2018-12-08T12:32:39.303Z,86.14
2018-12-08T12:33:39.238Z,85.47
2018-12-08T12:34:39.180Z,85.95
2018-12-08T12:35:39.120Z,86.52
2018-12-08T12:36:39.063Z,86.14
2018-12-08T12:37:38.994Z,86.05
2018-12-08T12:38:38.913Z,85.28
2018-12-08T12:39:38.844Z,85.86
2018-12-08T12:40:38.782Z,85.66
2018-12-08T12:41:38.717Z,85.66
2018-12-08T12:42:38.652Z,86.14
2018-12-08T12:43:38.590Z,86.71
2018-12-08T12:44:38.523Z,85.76
2018-12-08T12:45:38.465Z,84.72
2018-12-08T12:46:38.403Z,83.76
2018-12-08T12:47:38.324Z,84.62
2018-12-08T12:48:38.263Z,84.14
2018-12-08T12:49:38.217Z,84.14
2018-12-08T12:50:38.131Z,84.52
2018-12-08T12:51:38.067Z,84.05